createdAt,value
2018-04-26T00:01:16.264Z,11.00
2018-04-26T00:03:47.039Z,11.31
2018-04-26T00:06:17.761Z,11.25
2018-04-26T00:08:48.407Z,11.27
2018-04-26T00:11:19.076Z,11.18
2018-04-26T00:13:49.809Z,11.58
2018-04-26T00:16:20.529Z,10.97
2018-04-26T00:18:51.149Z,11.10
2018-04-26T00:21:21.918Z,11.08
2018-04-26T00:23:52.555Z,11.12
2018-04-26T00:26:23.120Z,10.95
2018-04-26T00:28:54.051Z,10.99
2018-04-26T00:31:24.746Z,11.01
2018-04-26T00:33:55.581Z,10.97
2018-04-26T00:36:26.314Z,10.99
2018-04-26T00:38:56.966Z,11.44
2018-04-26T00:41:27.495Z,11.10
2018-04-26T00:43:58.210Z,11.14
2018-04-26T00:46:28.826Z,11.12
2018-04-26T00:48:59.448Z,11.18
2018-04-26T00:51:38.648Z,11.27
2018-04-26T00:54:09.769Z,11.33
2018-04-26T00:56:40.385Z,11.24
2018-04-26T00:59:11.185Z,10.98
2018-04-26T01:01:42.083Z,10.95
2018-04-26T01:04:12.750Z,10.96
2018-04-26T01:06:43.347Z,10.81
2018-04-26T01:09:14.001Z,11.01
2018-04-26T01:11:45.215Z,10.59
2018-04-26T01:14:16.123Z,10.92
2018-04-26T01:16:46.841Z,11.07
2018-04-26T01:19:17.571Z,11.12
2018-04-26T01:21:48.476Z,11.10
2018-04-26T01:24:19.157Z,11.25
2018-04-26T01:26:49.914Z,10.97
2018-04-26T01:29:20.436Z,10.97
2018-04-26T01:31:51.116Z,11.27
2018-04-26T01:34:21.753Z,11.51
2018-04-26T01:38:00.667Z,11.60
2018-04-26T01:40:31.355Z,11.79
2018-04-26T01:43:02.076Z,11.57
2018-04-26T01:45:32.799Z,11.47
2018-04-26T01:48:03.440Z,11.42
2018-04-26T01:50:34.283Z,11.32
2018-04-26T01:53:04.843Z,11.49
2018-04-26T01:55:35.549Z,11.49
2018-04-26T01:58:06.141Z,11.46
2018-04-26T02:00:36.850Z,11.61
2018-04-26T02:03:07.364Z,11.43
2018-04-26T02:05:37.982Z,11.33
2018-04-26T02:08:08.742Z,11.06
2018-04-26T02:10:39.426Z,11.01
2018-04-26T02:13:10.050Z,10.96
2018-04-26T02:15:40.658Z,10.86
2018-04-26T02:18:11.333Z,10.94
2018-04-26T02:20:42.330Z,11.05
2018-04-26T02:23:13.203Z,10.91
2018-04-26T02:25:43.870Z,10.94
2018-04-26T02:28:14.559Z,10.78
2018-04-26T02:30:45.176Z,10.84
2018-04-26T02:33:15.794Z,10.89
2018-04-26T02:35:46.534Z,10.66
2018-04-26T02:38:17.296Z,10.67
2018-04-26T02:40:47.836Z,10.54
2018-04-26T02:43:18.497Z,10.65
2018-04-26T02:45:49.051Z,10.65
2018-04-26T02:48:19.725Z,10.89
2018-04-26T02:50:50.300Z,10.72
2018-04-26T02:53:20.924Z,10.57
2018-04-26T02:55:51.530Z,10.73
2018-04-26T02:58:22.246Z,10.72
2018-04-26T03:00:52.864Z,10.79
2018-04-26T03:03:23.491Z,10.32
2018-04-26T03:05:54.193Z,10.53
2018-04-26T03:08:24.853Z,10.27
2018-04-26T03:10:55.524Z,10.39
2018-04-26T03:13:26.280Z,10.25
2018-04-26T03:15:57.389Z,10.62
2018-04-26T03:18:28.018Z,10.44
2018-04-26T03:20:58.703Z,10.44
2018-04-26T03:23:29.355Z,10.39
2018-04-26T03:25:59.984Z,10.33
2018-04-26T03:28:30.705Z,10.27
2018-04-26T03:31:01.464Z,10.28
2018-04-26T03:33:32.132Z,10.31
2018-04-26T03:36:02.875Z,10.24
2018-04-26T03:38:33.543Z,10.32
2018-04-26T03:41:04.265Z,9.92
2018-04-26T03:43:34.798Z,10.09
2018-04-26T03:46:05.780Z,10.14
2018-04-26T03:48:36.597Z,10.24
2018-04-26T03:51:07.269Z,9.88
2018-04-26T03:53:37.912Z,9.77
2018-04-26T03:56:09.074Z,9.90
2018-04-26T03:58:39.617Z,10.17
2018-04-26T04:03:26.223Z,10.25
2018-04-26T04:06:01.429Z,9.94
2018-04-26T04:08:32.192Z,9.88
2018-04-26T04:11:02.989Z,9.84
2018-04-26T04:13:33.604Z,9.99
2018-04-26T04:16:04.252Z,9.78
2018-04-26T04:18:35.080Z,9.73
2018-04-26T04:21:05.886Z,9.60
2018-04-26T04:23:36.439Z,9.61
2018-04-26T04:26:06.972Z,9.76
2018-04-26T04:28:37.564Z,9.55
2018-04-26T04:31:08.202Z,9.53
2018-04-26T04:33:38.859Z,9.49
2018-04-26T04:36:09.567Z,9.43
2018-04-26T04:38:40.224Z,9.51
2018-04-26T04:41:10.789Z,9.17
2018-04-26T04:43:41.457Z,9.37
2018-04-26T04:46:12.525Z,9.22
2018-04-26T04:48:43.185Z,8.96
2018-04-26T04:51:13.767Z,9.49
2018-04-26T04:53:45.016Z,8.99
2018-04-26T04:56:15.588Z,9.15
2018-04-26T04:58:46.277Z,9.22
2018-04-26T05:01:16.976Z,9.62
2018-04-26T05:03:47.972Z,10.26
2018-04-26T05:06:18.851Z,10.23
2018-04-26T05:08:49.746Z,9.95
2018-04-26T05:11:20.571Z,9.59
2018-04-26T05:13:51.501Z,9.13
2018-04-26T05:16:22.112Z,9.09
2018-04-26T05:18:52.686Z,8.96
2018-04-26T05:21:23.275Z,9.17
2018-04-26T05:23:53.898Z,9.01
2018-04-26T05:26:24.933Z,8.75
2018-04-26T05:28:55.678Z,8.82
2018-04-26T05:31:26.393Z,8.73
2018-04-26T05:33:57.045Z,8.69
2018-04-26T05:36:27.576Z,8.77
2018-04-26T05:38:58.394Z,9.46
2018-04-26T05:41:29.071Z,9.63
2018-04-26T05:44:00.324Z,9.14
2018-04-26T05:46:30.984Z,8.89
2018-04-26T05:49:01.677Z,8.64
2018-04-26T05:51:32.416Z,8.61
2018-04-26T05:54:03.092Z,8.49
2018-04-26T05:56:33.619Z,8.64
2018-04-26T05:59:04.380Z,8.37
2018-04-26T06:01:35.004Z,8.69
2018-04-26T06:04:06.116Z,8.37
2018-04-26T06:06:36.869Z,8.65
2018-04-26T06:09:08.388Z,8.51
2018-04-26T06:11:39.340Z,8.52
2018-04-26T06:14:10.093Z,8.78
2018-04-26T06:16:41.004Z,8.48
2018-04-26T06:19:11.643Z,8.65
2018-04-26T06:21:42.291Z,9.01
2018-04-26T06:24:12.972Z,9.10
2018-04-26T06:26:43.605Z,9.15
2018-04-26T06:29:14.191Z,9.11
2018-04-26T06:31:44.869Z,9.07
2018-04-26T06:34:15.465Z,8.70
2018-04-26T06:36:46.088Z,8.93
2018-04-26T06:39:17.286Z,9.24
2018-04-26T06:41:47.929Z,9.60
2018-04-26T06:44:18.571Z,9.40
2018-04-26T06:46:49.432Z,9.22
2018-04-26T06:49:20.104Z,9.28
2018-04-26T06:51:50.687Z,9.52
2018-04-26T06:54:21.288Z,9.41
2018-04-26T06:56:51.924Z,9.29
2018-04-26T06:59:22.454Z,9.47
2018-04-26T07:01:53.017Z,9.28
2018-04-26T07:04:23.767Z,9.31
2018-04-26T07:06:54.289Z,9.64
2018-04-26T07:09:24.842Z,9.42
2018-04-26T07:11:55.792Z,9.38
2018-04-26T07:14:26.435Z,9.34
2018-04-26T07:16:57.088Z,9.26
2018-04-26T07:19:27.748Z,9.52
2018-04-26T07:21:58.329Z,9.52
2018-04-26T07:24:29.047Z,9.20
2018-04-26T07:26:59.677Z,9.45
2018-04-26T07:29:30.431Z,9.42
2018-04-26T07:32:00.996Z,9.78
2018-04-26T07:34:31.731Z,9.65
2018-04-26T07:37:02.425Z,10.04
2018-04-26T07:39:33.243Z,9.37
2018-04-26T07:42:03.822Z,9.56
2018-04-26T07:44:34.474Z,9.80
2018-04-26T07:47:05.106Z,9.75
2018-04-26T07:49:36.267Z,9.87
2018-04-26T07:52:07.067Z,9.95
2018-04-26T07:54:37.593Z,10.05
2018-04-26T07:57:08.183Z,10.16
2018-04-26T07:59:39.101Z,10.33
2018-04-26T08:02:09.821Z,10.18
2018-04-26T08:04:40.407Z,10.06
2018-04-26T08:07:10.964Z,10.21
2018-04-26T08:09:41.501Z,10.50
2018-04-26T08:12:12.248Z,10.69
2018-04-26T08:14:43.014Z,10.20
2018-04-26T08:17:13.711Z,10.13
2018-04-26T08:19:44.314Z,9.63
2018-04-26T08:22:14.978Z,9.50
2018-04-26T08:24:45.661Z,9.52
2018-04-26T08:27:16.325Z,9.46
2018-04-26T08:29:46.993Z,9.55
2018-04-26T08:32:17.729Z,9.74
2018-04-26T08:34:48.306Z,10.05
2018-04-26T08:37:19.182Z,9.54
2018-04-26T08:39:49.965Z,10.06
2018-04-26T08:42:20.643Z,9.71
2018-04-26T08:44:51.253Z,10.08
2018-04-26T08:47:21.940Z,9.81
2018-04-26T08:49:52.676Z,9.96
2018-04-26T08:52:23.522Z,9.88
2018-04-26T08:54:54.238Z,10.32
2018-04-26T08:57:25.050Z,11.37
2018-04-26T08:59:55.625Z,11.56
2018-04-26T09:02:26.427Z,11.30
2018-04-26T09:04:57.145Z,10.29
2018-04-26T09:07:27.858Z,10.10
2018-04-26T09:09:58.469Z,10.22
2018-04-26T09:12:29.376Z,10.33
2018-04-26T09:14:59.976Z,9.96
2018-04-26T09:17:30.667Z,10.00
2018-04-26T09:20:01.366Z,9.73
2018-04-26T09:22:31.997Z,9.79
2018-04-26T09:25:02.835Z,9.79
2018-04-26T09:27:33.584Z,9.64
2018-04-26T09:30:04.207Z,9.64
2018-04-26T09:32:34.869Z,9.89
2018-04-26T09:35:05.601Z,9.99
2018-04-26T09:37:36.298Z,10.28
2018-04-26T09:40:07.092Z,10.49
2018-04-26T09:42:37.855Z,10.96
2018-04-26T09:45:08.595Z,10.95
2018-04-26T09:47:39.284Z,10.58
2018-04-26T09:50:10.035Z,11.10
2018-04-26T09:52:40.840Z,11.34
2018-04-26T09:55:11.449Z,11.59
2018-04-26T09:57:41.991Z,11.26
2018-04-26T10:00:16.731Z,11.52
2018-04-26T10:02:47.664Z,11.45
2018-04-26T10:05:18.996Z,12.46
2018-04-26T10:07:49.708Z,11.65
2018-04-26T10:10:20.580Z,11.39
2018-04-26T10:12:51.242Z,11.41
2018-04-26T10:15:21.809Z,11.64
2018-04-26T10:17:52.715Z,11.59
2018-04-26T10:20:23.444Z,12.62
2018-04-26T10:22:54.119Z,12.51
2018-04-26T10:25:24.722Z,12.32
2018-04-26T10:27:55.280Z,12.37
2018-04-26T10:30:25.844Z,12.41
2018-04-26T10:32:56.466Z,11.95
2018-04-26T10:35:28.289Z,12.40
2018-04-26T10:37:58.994Z,11.67
2018-04-26T10:40:29.649Z,11.95
2018-04-26T10:43:01.334Z,11.86
2018-04-26T10:45:32.083Z,11.52
2018-04-26T10:48:02.681Z,11.77
2018-04-26T10:50:33.580Z,11.98
2018-04-26T10:53:04.190Z,11.96
2018-04-26T10:55:35.189Z,12.06
2018-04-26T10:58:05.783Z,11.66
2018-04-26T11:00:40.369Z,11.55
2018-04-26T11:03:13.126Z,11.69
2018-04-26T11:05:43.893Z,12.40
2018-04-26T11:08:14.846Z,12.69
2018-04-26T11:10:46.396Z,12.83
2018-04-26T11:13:17.023Z,11.79
2018-04-26T11:15:47.861Z,11.82
2018-04-26T11:18:18.788Z,11.91
2018-04-26T11:20:49.836Z,11.93
2018-04-26T11:23:21.020Z,12.40
2018-04-26T11:25:51.828Z,12.46
2018-04-26T11:28:22.483Z,12.90
2018-04-26T11:30:53.686Z,12.57
2018-04-26T11:33:24.315Z,12.51
2018-04-26T11:35:55.415Z,12.76
2018-04-26T11:38:26.223Z,12.91
2018-04-26T11:40:57.497Z,12.75
2018-04-26T11:43:28.195Z,12.97
2018-04-26T11:45:58.937Z,12.82
2018-04-26T11:48:29.568Z,12.85
2018-04-26T11:51:00.391Z,13.28
2018-04-26T11:53:31.206Z,13.86
2018-04-26T11:56:01.985Z,13.65
2018-04-26T11:58:32.759Z,13.74
2018-04-26T12:01:03.364Z,13.05
2018-04-26T12:03:34.140Z,12.61
2018-04-26T12:06:05.033Z,12.30
2018-04-26T12:08:35.694Z,12.50
2018-04-26T12:11:07.359Z,12.61
2018-04-26T12:13:38.032Z,12.90
2018-04-26T12:16:09.173Z,13.25
2018-04-26T12:18:40.152Z,12.89
2018-04-26T12:21:11.018Z,13.14
2018-04-26T12:23:41.649Z,12.74
2018-04-26T12:26:12.468Z,12.40
2018-04-26T12:28:44.106Z,12.88
2018-04-26T12:31:14.811Z,12.68
2018-04-26T12:33:45.627Z,12.80
2018-04-26T12:36:16.246Z,12.63
2018-04-26T12:38:46.911Z,12.61
2018-04-26T12:41:17.580Z,12.73
2018-04-26T12:43:48.414Z,12.40
2018-04-26T12:46:19.427Z,12.72
2018-04-26T12:48:50.087Z,13.16
2018-04-26T12:51:20.835Z,13.67
2018-04-26T12:53:51.444Z,13.96
2018-04-26T12:56:22.159Z,14.15
2018-04-26T12:58:52.983Z,13.72
2018-04-26T13:01:23.730Z,13.56
2018-04-26T13:03:54.412Z,13.81
2018-04-26T13:06:25.209Z,13.45
2018-04-26T13:08:55.855Z,14.26
2018-04-26T13:11:26.658Z,14.65
2018-04-26T13:14:03.287Z,15.16
2018-04-26T13:16:37.722Z,14.77
2018-04-26T13:19:08.529Z,14.70
2018-04-26T13:21:39.312Z,13.99
2018-04-26T13:24:09.933Z,12.90
2018-04-26T13:26:40.651Z,13.29
2018-04-26T13:29:11.285Z,13.15
2018-04-26T13:31:42.054Z,12.94
2018-04-26T13:34:12.684Z,12.92
2018-04-26T13:36:43.488Z,12.95
2018-04-26T13:39:14.313Z,13.36
2018-04-26T13:41:45.146Z,14.20
2018-04-26T13:44:15.774Z,14.32
2018-04-26T13:46:51.109Z,13.94
2018-04-26T13:49:24.296Z,12.91
2018-04-26T13:51:56.571Z,12.73
2018-04-26T13:54:27.795Z,12.93
2018-04-26T13:56:58.707Z,12.98
2018-04-26T13:59:29.288Z,13.07
2018-04-26T14:02:00.203Z,13.21
2018-04-26T14:04:30.933Z,13.85
2018-04-26T14:07:01.665Z,14.05
2018-04-26T14:09:32.525Z,14.47
2018-04-26T14:12:03.557Z,15.09
2018-04-26T14:14:34.288Z,15.57
2018-04-26T14:17:05.948Z,15.35
2018-04-26T14:19:37.049Z,15.06
2018-04-26T14:22:07.670Z,14.29
2018-04-26T14:24:38.360Z,14.19
2018-04-26T14:27:09.035Z,13.97
2018-04-26T14:29:39.995Z,14.36
2018-04-26T14:32:10.624Z,13.96
2018-04-26T14:34:41.266Z,14.66
2018-04-26T14:37:12.093Z,14.86
2018-04-26T14:39:43.068Z,14.42
2018-04-26T14:42:13.600Z,14.74
2018-04-26T14:44:44.303Z,14.73
2018-04-26T14:47:15.270Z,14.23
2018-04-26T14:49:46.386Z,14.48
2018-04-26T14:52:17.055Z,14.32
2018-04-26T14:54:47.668Z,13.88
2018-04-26T14:57:18.453Z,13.48
2018-04-26T14:59:49.223Z,13.77
2018-04-26T15:02:19.964Z,13.35
2018-04-26T15:04:52.347Z,13.00
2018-04-26T15:07:23.006Z,12.80
2018-04-26T15:09:54.240Z,13.00
2018-04-26T15:12:25.096Z,13.34
2018-04-26T15:14:55.797Z,13.38
2018-04-26T15:17:27.398Z,13.51
2018-04-26T15:19:58.318Z,13.70
2018-04-26T15:22:29.164Z,13.54
2018-04-26T15:24:59.962Z,13.58
2018-04-26T15:27:30.811Z,13.54
2018-04-26T15:30:01.405Z,13.43
2018-04-26T15:32:32.288Z,13.77
2018-04-26T15:35:03.325Z,13.87
2018-04-26T15:37:34.315Z,13.55
2018-04-26T15:40:04.906Z,13.88
2018-04-26T15:42:35.481Z,13.44
2018-04-26T15:45:06.157Z,13.34
2018-04-26T15:47:36.793Z,13.79
2018-04-26T15:50:07.999Z,13.72
2018-04-26T15:52:51.541Z,13.25
2018-04-26T15:56:35.879Z,13.20
2018-04-26T16:00:18.968Z,13.05
2018-04-26T16:04:01.324Z,13.15
2018-04-26T16:06:42.674Z,13.21
2018-04-26T16:09:55.483Z,13.12
2018-04-26T16:15:52.586Z,13.38
2018-04-26T16:18:59.818Z,13.36
2018-04-26T16:22:47.741Z,13.21
2018-04-26T16:25:29.088Z,13.21
2018-04-26T16:28:12.062Z,13.12
2018-04-26T16:30:57.650Z,12.80
2018-04-26T16:33:47.207Z,13.25
2018-04-26T16:36:27.526Z,12.94
2018-04-26T16:39:04.199Z,12.82
2018-04-26T16:41:35.384Z,12.81
2018-04-26T16:44:05.913Z,12.99
2018-04-26T16:46:36.544Z,12.76
2018-04-26T16:49:07.489Z,12.91
2018-04-26T16:51:38.273Z,12.91
2018-04-26T16:54:08.915Z,12.77
2018-04-26T16:56:39.653Z,12.30
2018-04-26T16:59:10.177Z,12.37
2018-04-26T17:01:40.938Z,12.41
2018-04-26T17:04:11.726Z,12.70
2018-04-26T17:06:42.411Z,12.54
2018-04-26T17:09:13.163Z,12.38
2018-04-26T17:11:43.732Z,12.65
2018-04-26T17:14:14.443Z,12.80
2018-04-26T17:16:45.214Z,12.66
2018-04-26T17:19:15.945Z,12.35
2018-04-26T17:21:46.824Z,12.46
2018-04-26T17:24:17.706Z,12.49
2018-04-26T17:26:48.423Z,12.33
2018-04-26T17:29:19.281Z,12.47
2018-04-26T17:31:50.183Z,12.95
2018-04-26T17:34:20.822Z,12.56
2018-04-26T17:36:51.592Z,12.34
2018-04-26T17:39:22.388Z,12.32
2018-04-26T17:41:53.231Z,12.40
2018-04-26T17:44:23.801Z,12.34
2018-04-26T17:46:54.567Z,12.23
2018-04-26T17:49:25.260Z,12.21
2018-04-26T17:51:55.963Z,12.22
2018-04-26T17:54:26.815Z,12.24
2018-04-26T17:56:57.546Z,12.02
2018-04-26T17:59:29.079Z,12.24
2018-04-26T18:01:59.692Z,12.16
2018-04-26T18:04:31.399Z,12.14
2018-04-26T18:07:01.977Z,12.41
2018-04-26T18:09:32.725Z,12.16
2018-04-26T18:12:03.461Z,11.98
2018-04-26T18:14:34.172Z,12.13
2018-04-26T18:17:05.124Z,11.66
2018-04-26T18:19:35.945Z,11.79
2018-04-26T18:22:06.668Z,11.85
2018-04-26T18:24:37.260Z,11.66
2018-04-26T18:27:08.084Z,11.94
2018-04-26T18:29:38.606Z,12.08
2018-04-26T18:32:09.278Z,11.89
2018-04-26T18:34:39.898Z,11.63
2018-04-26T18:37:10.724Z,11.71
2018-04-26T18:39:41.423Z,11.95
2018-04-26T18:42:12.138Z,11.75
2018-04-26T18:44:43.242Z,11.89
2018-04-26T18:47:14.071Z,11.81
2018-04-26T18:49:44.758Z,11.83
2018-04-26T18:52:15.595Z,11.90
2018-04-26T18:54:46.329Z,11.76
2018-04-26T18:57:17.109Z,11.55
2018-04-26T18:59:48.047Z,11.00
2018-04-26T19:02:18.947Z,11.24
2018-04-26T19:04:49.673Z,11.39
2018-04-26T19:07:20.447Z,11.55
2018-04-26T19:09:51.966Z,11.54
2018-04-26T19:12:22.671Z,11.44
2018-04-26T19:14:53.874Z,11.20
2018-04-26T19:17:24.483Z,10.91
2018-04-26T19:19:55.366Z,11.04
2018-04-26T19:22:26.315Z,10.43
2018-04-26T19:24:57.162Z,10.55
2018-04-26T19:27:28.078Z,10.48
2018-04-26T19:29:58.665Z,10.35
2018-04-26T19:32:29.439Z,10.13
2018-04-26T19:35:00.629Z,10.29
2018-04-26T19:37:31.499Z,10.18
2018-04-26T19:40:02.232Z,9.86
2018-04-26T19:42:33.047Z,10.25
2018-04-26T19:45:03.944Z,10.32
2018-04-26T19:51:03.746Z,10.25
2018-04-26T19:56:38.296Z,9.71
2018-04-26T19:59:08.860Z,9.51
2018-04-26T20:01:39.678Z,9.86
2018-04-26T20:04:10.328Z,9.81
2018-04-26T20:06:41.451Z,9.62
2018-04-26T20:09:12.459Z,9.35
2018-04-26T20:11:43.172Z,9.35
2018-04-26T20:14:13.747Z,9.44
2018-04-26T20:16:44.297Z,9.04
2018-04-26T20:19:15.139Z,8.97
2018-04-26T20:21:45.709Z,8.97
2018-04-26T20:24:16.397Z,8.94
2018-04-26T20:26:49.424Z,9.20
2018-04-26T20:29:20.447Z,9.45
2018-04-26T20:31:51.055Z,9.48
2018-04-26T20:34:22.492Z,9.10
2018-04-26T20:36:53.113Z,8.82
2018-04-26T20:39:23.815Z,8.77
2018-04-26T20:41:56.649Z,9.25
2018-04-26T20:44:52.041Z,9.24
2018-04-26T20:47:22.707Z,8.64
2018-04-26T20:49:53.265Z,8.43
2018-04-26T20:52:23.888Z,8.63
2018-04-26T20:54:54.597Z,8.13
2018-04-26T20:57:25.423Z,8.18
2018-04-26T20:59:56.115Z,8.04
2018-04-26T21:02:26.886Z,8.06
2018-04-26T21:04:57.577Z,8.61
2018-04-26T21:07:28.125Z,8.36
2018-04-26T21:09:59.016Z,8.54
2018-04-26T21:12:29.641Z,8.58
2018-04-26T21:15:00.212Z,8.66
2018-04-26T21:17:30.688Z,8.72
2018-04-26T21:20:02.040Z,8.73
2018-04-26T21:22:32.810Z,8.67
2018-04-26T21:25:03.511Z,8.65
2018-04-26T21:27:34.155Z,8.52
2018-04-26T21:30:04.832Z,8.41
2018-04-26T21:32:35.401Z,8.53
2018-04-26T21:35:05.948Z,8.65
2018-04-26T21:37:36.847Z,8.61
2018-04-26T21:40:07.740Z,8.59
2018-04-26T21:42:38.430Z,8.64
2018-04-26T21:45:08.928Z,8.66
2018-04-26T21:47:39.650Z,8.58
2018-04-26T21:50:15.400Z,8.58
2018-04-26T21:52:51.213Z,8.34
2018-04-26T21:55:27.563Z,8.30
2018-04-26T21:58:03.410Z,8.26
2018-04-26T22:00:39.177Z,8.27
2018-04-26T22:03:09.995Z,8.19
2018-04-26T22:05:40.784Z,8.13
2018-04-26T22:08:11.536Z,8.19
2018-04-26T22:10:42.202Z,8.20
2018-04-26T22:13:12.793Z,8.15
2018-04-26T22:15:43.420Z,8.24
2018-04-26T22:18:13.988Z,8.21
2018-04-26T22:20:44.552Z,8.08
2018-04-26T22:23:15.143Z,7.79
2018-04-26T22:25:45.827Z,8.09
2018-04-26T22:28:16.483Z,8.03
2018-04-26T22:30:46.953Z,8.02
2018-04-26T22:33:17.440Z,8.23
2018-04-26T22:35:48.028Z,8.08
2018-04-26T22:38:18.687Z,7.95
2018-04-26T22:40:49.348Z,7.96
2018-04-26T22:43:20.031Z,7.81
2018-04-26T22:45:50.735Z,8.00
2018-04-26T22:48:21.709Z,7.60
2018-04-26T22:50:52.315Z,7.53
2018-04-26T22:53:22.842Z,7.66
2018-04-26T22:55:53.415Z,7.70
2018-04-26T22:58:23.993Z,7.78
2018-04-26T23:00:54.615Z,7.68
2018-04-26T23:03:25.252Z,7.37
2018-04-26T23:05:55.915Z,7.32
2018-04-26T23:08:26.591Z,7.60
2018-04-26T23:10:57.160Z,7.60
2018-04-26T23:13:27.951Z,7.70
2018-04-26T23:15:59.167Z,7.39
2018-04-26T23:18:29.920Z,7.56
2018-04-26T23:21:00.579Z,7.64
2018-04-26T23:23:31.514Z,7.43
2018-04-26T23:26:02.227Z,7.28
2018-04-26T23:28:33.044Z,7.22
2018-04-26T23:31:03.781Z,7.49
2018-04-26T23:33:34.479Z,7.59
2018-04-26T23:36:05.137Z,7.54
2018-04-26T23:38:35.728Z,6.98
2018-04-26T23:41:06.353Z,7.02
2018-04-26T23:43:36.972Z,7.12
2018-04-26T23:46:07.616Z,7.27
2018-04-26T23:48:38.217Z,7.02
2018-04-26T23:51:08.903Z,7.16
2018-04-26T23:53:39.425Z,7.12
2018-04-26T23:56:10.144Z,7.18
2018-04-26T23:58:40.939Z,7.11
